createdAt,value
2023-04-18T00:00:00.274Z,29.45
2023-04-18T00:01:00.255Z,30.52
2023-04-18T00:02:00.382Z,29.83
2023-04-18T00:03:03.282Z,27.19
2023-04-18T00:03:59.496Z,27.43
2023-04-18T00:04:59.365Z,27.56
2023-04-18T00:06:00.257Z,28.55
2023-04-18T00:06:59.259Z,28.72
2023-04-18T00:07:59.224Z,27.84
2023-04-18T00:09:00.239Z,28.32
2023-04-18T00:09:59.424Z,26.26
2023-04-18T00:10:59.557Z,28.00
2023-04-18T00:12:00.684Z,27.73
2023-04-18T00:12:59.338Z,30.04
2023-04-18T00:13:59.298Z,28.83
2023-04-18T00:15:00.789Z,29.37
2023-04-18T00:16:00.168Z,31.25
2023-04-18T00:17:00.230Z,30.93
2023-04-18T00:18:00.284Z,29.18
2023-04-18T00:19:00.175Z,28.48
2023-04-18T00:20:00.147Z,30.00
2023-04-18T00:21:00.162Z,28.97
2023-04-18T00:22:00.158Z,29.95
2023-04-18T00:22:59.126Z,27.79
2023-04-18T00:23:59.123Z,26.46
2023-04-18T00:25:00.119Z,30.20
2023-04-18T00:26:00.128Z,28.81
2023-04-18T00:26:59.129Z,29.64
2023-04-18T00:28:00.141Z,29.47
2023-04-18T00:28:59.074Z,28.88
2023-04-18T00:30:00.106Z,28.91
2023-04-18T00:30:59.133Z,26.93
2023-04-18T00:32:00.094Z,28.10
2023-04-18T00:33:00.172Z,27.23
2023-04-18T00:34:00.091Z,28.54
2023-04-18T00:34:59.036Z,28.79
2023-04-18T00:35:59.048Z,28.65
2023-04-18T00:37:00.027Z,28.20
2023-04-18T00:38:00.027Z,29.52
2023-04-18T00:39:00.028Z,27.96
2023-04-18T00:39:59.994Z,26.34
2023-04-18T00:40:58.984Z,27.81
2023-04-18T00:41:58.992Z,28.26
2023-04-18T00:42:58.991Z,29.02
2023-04-18T00:43:58.978Z,26.15
2023-04-18T00:44:58.981Z,27.69
2023-04-18T00:45:59.986Z,29.80
2023-04-18T00:46:58.940Z,28.27
2023-04-18T00:47:59.961Z,28.29
2023-04-18T00:48:59.938Z,27.73
2023-04-18T00:49:59.986Z,26.18
2023-04-18T00:50:59.950Z,27.49
2023-04-18T00:51:59.911Z,28.40
2023-04-18T00:52:59.917Z,28.58
2023-04-18T00:53:59.220Z,27.26
2023-04-18T00:55:00.204Z,29.57
2023-04-18T00:56:00.302Z,29.70
2023-04-18T00:56:58.887Z,28.83
2023-04-18T00:57:59.898Z,30.86
2023-04-18T00:58:58.854Z,29.92
2023-04-18T00:59:59.886Z,30.33
2023-04-18T01:00:59.854Z,28.39
2023-04-18T01:01:59.002Z,26.01
2023-04-18T01:02:59.020Z,28.49
2023-04-18T01:03:58.905Z,29.93
2023-04-18T01:04:59.863Z,29.26
2023-04-18T01:05:58.907Z,27.65
2023-04-18T01:06:58.873Z,29.87
2023-04-18T01:07:58.919Z,29.28
2023-04-18T01:08:59.240Z,28.30
2023-04-18T01:09:59.015Z,28.03
2023-04-18T01:10:59.096Z,28.87
2023-04-18T01:12:00.045Z,28.45
2023-04-18T01:13:00.210Z,27.58
2023-04-18T01:13:59.085Z,26.53
2023-04-18T01:15:00.060Z,28.41
2023-04-18T01:16:00.299Z,28.07
2023-04-18T01:17:00.055Z,27.89
2023-04-18T01:18:00.208Z,29.72
2023-04-18T01:19:00.213Z,28.08
2023-04-18T01:20:00.259Z,26.09
2023-04-18T01:21:00.077Z,26.51
2023-04-18T01:22:00.368Z,27.87
2023-04-18T01:22:59.929Z,26.71
2023-04-18T01:23:59.922Z,26.77
2023-04-18T01:24:59.922Z,28.43
2023-04-18T01:25:59.949Z,27.08
2023-04-18T01:26:59.925Z,28.12
2023-04-18T01:27:58.933Z,27.92
2023-04-18T01:28:59.960Z,29.04
2023-04-18T01:29:59.923Z,28.37
2023-04-18T01:30:59.931Z,28.08
2023-04-18T01:31:58.922Z,29.00
2023-04-18T01:32:58.947Z,28.99
2023-04-18T01:33:59.935Z,28.63
2023-04-18T01:35:00.222Z,27.86
2023-04-18T01:36:00.080Z,28.21
2023-04-18T01:37:00.286Z,29.24
2023-04-18T01:38:00.853Z,27.97
2023-04-18T01:39:00.194Z,29.23
2023-04-18T01:40:00.210Z,28.04
2023-04-18T01:41:00.193Z,29.14
2023-04-18T01:42:00.212Z,27.57
2023-04-18T01:43:00.065Z,27.38
2023-04-18T01:44:00.538Z,28.04
2023-04-18T01:45:00.385Z,27.29
2023-04-18T01:45:59.998Z,27.32
2023-04-18T01:46:59.044Z,25.00
2023-04-18T01:47:59.048Z,26.54
2023-04-18T01:49:00.018Z,29.44
2023-04-18T01:49:59.990Z,25.00
2023-04-18T01:50:58.990Z,29.20
2023-04-18T01:52:00.047Z,27.98
2023-04-18T01:52:59.988Z,29.58
2023-04-18T01:53:59.326Z,26.97
2023-04-18T01:54:59.969Z,29.30
2023-04-18T01:55:58.974Z,29.71
2023-04-18T01:56:58.985Z,29.80
2023-04-18T01:57:58.962Z,28.95
2023-04-18T01:58:59.970Z,32.70
2023-04-18T01:59:59.982Z,28.32
2023-04-18T02:01:00.057Z,29.88
2023-04-18T02:02:00.104Z,31.05
2023-04-18T02:03:00.541Z,31.47
2023-04-18T02:03:59.565Z,30.56
2023-04-18T02:05:00.118Z,31.84
2023-04-18T02:05:59.063Z,27.73
2023-04-18T02:07:00.070Z,33.03
2023-04-18T02:08:00.051Z,29.48
2023-04-18T02:09:00.043Z,29.77
2023-04-18T02:10:00.085Z,30.82
2023-04-18T02:11:00.065Z,27.81
2023-04-18T02:12:00.021Z,28.16
2023-04-18T02:12:59.013Z,27.74
2023-04-18T02:14:00.078Z,28.49
2023-04-18T02:15:00.000Z,27.94
2023-04-18T02:16:00.072Z,28.58
2023-04-18T02:16:59.048Z,32.42
2023-04-18T02:17:58.988Z,31.38
2023-04-18T02:18:59.975Z,28.90
2023-04-18T02:19:58.967Z,29.80
2023-04-18T02:20:59.956Z,29.01
2023-04-18T02:21:59.964Z,29.76
2023-04-18T02:22:59.940Z,32.89
2023-04-18T02:23:59.951Z,32.47
2023-04-18T02:24:59.942Z,27.42
2023-04-18T02:25:59.933Z,31.55
2023-04-18T02:26:59.918Z,31.28
2023-04-18T02:28:00.005Z,29.09
2023-04-18T02:28:58.961Z,34.86
2023-04-18T02:29:59.915Z,26.48
2023-04-18T02:30:59.900Z,28.28
2023-04-18T02:32:00.005Z,32.13
2023-04-18T02:33:00.078Z,29.34
2023-04-18T02:33:59.109Z,30.86
2023-04-18T02:35:00.443Z,29.25
2023-04-18T02:35:59.483Z,28.47
2023-04-18T02:37:00.853Z,32.57
2023-04-18T02:38:00.000Z,31.46
2023-04-18T02:38:59.707Z,32.28
2023-04-18T02:40:00.879Z,32.45
2023-04-18T02:41:00.973Z,32.54
2023-04-18T02:41:59.757Z,29.27
2023-04-18T02:43:00.783Z,28.52
2023-04-18T02:44:01.221Z,28.56
2023-04-18T02:45:01.202Z,28.75
2023-04-18T02:46:00.024Z,29.90
2023-04-18T02:47:00.798Z,30.31
2023-04-18T02:48:01.221Z,28.39
2023-04-18T02:49:01.162Z,30.02
2023-04-18T02:50:00.559Z,29.55
2023-04-18T02:51:00.990Z,30.13
2023-04-18T02:52:01.481Z,29.88
2023-04-18T02:53:01.272Z,29.40
2023-04-18T02:54:01.179Z,27.62
2023-04-18T02:55:01.497Z,30.72
2023-04-18T02:56:01.527Z,28.44
2023-04-18T02:57:01.410Z,29.53
2023-04-18T02:58:01.834Z,28.14
2023-04-18T02:59:00.751Z,29.51
2023-04-18T03:00:01.658Z,32.58
2023-04-18T03:01:01.715Z,27.59
2023-04-18T03:02:01.860Z,28.49
2023-04-18T03:03:01.838Z,29.45
2023-04-18T03:04:01.254Z,26.64
2023-04-18T03:05:01.365Z,29.43
2023-04-18T03:06:01.346Z,31.15
2023-04-18T03:07:00.437Z,27.14
2023-04-18T03:08:01.458Z,26.90
2023-04-18T03:09:01.470Z,25.96
2023-04-18T03:10:00.539Z,25.80
2023-04-18T03:11:00.556Z,27.54
2023-04-18T03:12:01.604Z,27.41
2023-04-18T03:13:01.755Z,26.08
2023-04-18T03:14:01.786Z,29.67
2023-04-18T03:15:01.752Z,31.62
2023-04-18T03:16:01.805Z,30.14
2023-04-18T03:17:01.848Z,29.86
2023-04-18T03:18:00.960Z,33.77
2023-04-18T03:19:00.944Z,29.43
2023-04-18T03:20:01.010Z,28.18
2023-04-18T03:21:02.121Z,30.07
2023-04-18T03:22:01.084Z,33.46
2023-04-18T03:23:01.454Z,33.00
2023-04-18T03:24:02.393Z,31.61
2023-04-18T03:25:02.207Z,31.09
2023-04-18T03:26:01.269Z,30.09
2023-04-18T03:27:01.308Z,31.95
2023-04-18T03:28:02.364Z,33.13
2023-04-18T03:29:02.413Z,26.75
2023-04-18T03:30:02.451Z,33.25
2023-04-18T03:31:02.527Z,29.91
2023-04-18T03:32:02.539Z,26.73
2023-04-18T03:33:02.743Z,31.70
2023-04-18T03:34:01.647Z,28.33
2023-04-18T03:35:02.665Z,31.75
2023-04-18T03:36:01.726Z,31.46
2023-04-18T03:37:02.814Z,31.35
2023-04-18T03:38:01.818Z,34.44
2023-04-18T03:39:02.877Z,32.07
2023-04-18T03:40:02.914Z,28.29
2023-04-18T03:41:02.973Z,31.38
2023-04-18T03:42:03.009Z,29.83
2023-04-18T03:43:02.042Z,30.21
2023-04-18T03:44:02.113Z,30.36
2023-04-18T03:45:02.119Z,33.20
2023-04-18T03:46:02.266Z,31.26
2023-04-18T03:47:03.189Z,27.90
2023-04-18T03:48:03.339Z,31.05
2023-04-18T03:49:03.321Z,29.03
2023-04-18T03:50:03.335Z,30.36
2023-04-18T03:51:02.381Z,30.10
2023-04-18T03:52:03.433Z,25.38
2023-04-18T03:53:03.455Z,29.19
2023-04-18T03:54:03.523Z,28.52
2023-04-18T03:55:03.573Z,27.66
2023-04-18T03:56:03.614Z,28.76
2023-04-18T03:57:03.641Z,27.60
2023-04-18T03:58:02.686Z,27.87
2023-04-18T03:59:02.716Z,27.32
2023-04-18T04:00:02.754Z,28.70
2023-04-18T04:01:03.812Z,28.17
2023-04-18T04:02:04.172Z,31.53
2023-04-18T04:03:04.325Z,29.15
2023-04-18T04:04:04.686Z,32.69
2023-04-18T04:05:04.427Z,28.99
2023-04-18T04:06:04.226Z,29.20
2023-04-18T04:07:03.167Z,29.83
2023-04-18T04:08:04.130Z,30.37
2023-04-18T04:09:03.139Z,30.06
2023-04-18T04:10:04.356Z,30.77
2023-04-18T04:11:04.210Z,28.53
2023-04-18T04:12:04.151Z,33.67
2023-04-18T04:13:04.838Z,28.78
2023-04-18T04:14:03.441Z,29.64
2023-04-18T04:15:04.409Z,27.98
2023-04-18T04:16:03.446Z,29.94
2023-04-18T04:17:04.678Z,29.26
2023-04-18T04:18:04.669Z,28.53
2023-04-18T04:19:04.413Z,29.33
2023-04-18T04:20:04.727Z,27.93
2023-04-18T04:21:04.407Z,28.30
2023-04-18T04:22:04.625Z,28.78
2023-04-18T04:23:04.634Z,27.33
2023-04-18T04:24:03.675Z,29.09
2023-04-18T04:25:03.714Z,29.15
2023-04-18T04:26:04.564Z,27.26
2023-04-18T04:27:03.601Z,27.49
2023-04-18T04:28:03.781Z,25.77
2023-04-18T04:29:05.289Z,29.37
2023-04-18T04:30:03.714Z,26.21
2023-04-18T04:31:03.596Z,29.98
2023-04-18T04:32:04.027Z,28.60
2023-04-18T04:33:04.743Z,25.00
2023-04-18T04:34:04.081Z,29.99
2023-04-18T04:35:03.332Z,32.24
2023-04-18T04:36:03.329Z,28.83
2023-04-18T04:37:03.307Z,28.49
2023-04-18T04:38:04.328Z,29.25
2023-04-18T04:39:03.297Z,26.91
2023-04-18T04:40:04.280Z,29.01
2023-04-18T04:41:03.314Z,29.58
2023-04-18T04:42:04.277Z,30.41
2023-04-18T04:43:04.257Z,29.85
2023-04-18T04:44:04.262Z,25.69
2023-04-18T04:45:03.374Z,29.97
2023-04-18T04:46:04.352Z,26.32
2023-04-18T04:47:03.241Z,31.95
2023-04-18T04:48:03.412Z,25.00
2023-04-18T04:49:04.290Z,33.69
2023-04-18T04:50:04.358Z,29.28
2023-04-18T04:51:04.364Z,28.45
2023-04-18T04:52:04.446Z,29.54
2023-04-18T04:53:04.457Z,28.10
2023-04-18T04:54:04.515Z,29.96
2023-04-18T04:55:04.532Z,29.28
2023-04-18T04:56:04.579Z,31.83
2023-04-18T04:57:04.641Z,28.37
2023-04-18T04:58:04.757Z,31.25
2023-04-18T04:59:04.720Z,29.80
2023-04-18T05:00:04.754Z,28.87
2023-04-18T05:01:03.842Z,28.35
2023-04-18T05:02:03.915Z,30.07
2023-04-18T05:03:03.951Z,30.13
2023-04-18T05:04:05.013Z,29.94
2023-04-18T05:05:05.143Z,30.43
2023-04-18T05:06:05.005Z,29.64
2023-04-18T05:07:05.015Z,30.90
2023-04-18T05:08:05.147Z,32.17
2023-04-18T05:09:04.136Z,29.74
2023-04-18T05:10:04.164Z,30.39
2023-04-18T05:11:04.190Z,28.20
2023-04-18T05:12:05.245Z,31.77
2023-04-18T05:13:05.268Z,27.15
2023-04-18T05:14:05.324Z,28.17
2023-04-18T05:15:05.389Z,31.66
2023-04-18T05:16:04.402Z,33.41
2023-04-18T05:17:04.489Z,30.27
2023-04-18T05:18:04.501Z,31.43
2023-04-18T05:19:05.509Z,30.70
2023-04-18T05:20:05.570Z,32.03
2023-04-18T05:21:04.601Z,36.02
2023-04-18T05:22:04.651Z,30.26
2023-04-18T05:23:04.663Z,32.19
2023-04-18T05:24:04.731Z,32.05
2023-04-18T05:25:04.808Z,32.50
2023-04-18T05:26:04.784Z,27.79
2023-04-18T05:27:05.891Z,29.93
2023-04-18T05:28:04.851Z,30.57
2023-04-18T05:29:05.934Z,33.18
2023-04-18T05:30:05.927Z,31.35
2023-04-18T05:31:06.013Z,34.61
2023-04-18T05:32:06.011Z,34.99
2023-04-18T05:33:05.151Z,37.49
2023-04-18T05:34:05.124Z,38.85
2023-04-18T05:35:06.117Z,39.05
2023-04-18T05:36:06.158Z,43.84
2023-04-18T05:37:07.740Z,44.27
2023-04-18T05:38:06.170Z,50.91
2023-04-18T05:39:06.174Z,50.73
2023-04-18T05:40:05.126Z,51.40
2023-04-18T05:41:05.144Z,49.92
2023-04-18T05:42:06.121Z,48.31
2023-04-18T05:43:06.102Z,57.61
2023-04-18T05:44:06.360Z,61.88
2023-04-18T05:45:05.123Z,67.70
2023-04-18T05:46:05.091Z,68.15
2023-04-18T05:47:06.104Z,80.85
2023-04-18T05:48:06.100Z,86.43
2023-04-18T05:49:06.120Z,103.37
2023-04-18T05:50:06.075Z,111.30
2023-04-18T05:51:05.201Z,116.13
2023-04-18T05:52:06.085Z,118.17
2023-04-18T05:53:06.967Z,122.00
2023-04-18T05:54:06.147Z,134.48
2023-04-18T05:55:05.035Z,139.54
2023-04-18T05:56:06.085Z,134.87
2023-04-18T05:57:06.334Z,139.87
2023-04-18T05:58:07.393Z,147.73
2023-04-18T05:59:05.033Z,161.52
2023-04-18T06:00:06.039Z,161.26
2023-04-18T06:01:12.172Z,168.07
2023-04-18T06:02:04.986Z,168.41
2023-04-18T06:03:08.564Z,169.96
2023-04-18T06:04:06.134Z,168.72
2023-04-18T06:05:06.070Z,169.43
2023-04-18T06:06:05.958Z,169.58
2023-04-18T06:07:04.948Z,170.32
2023-04-18T06:08:05.945Z,167.45
2023-04-18T06:09:05.923Z,170.15
2023-04-18T06:10:05.985Z,170.25
2023-04-18T06:11:04.954Z,174.41
2023-04-18T06:12:05.902Z,176.06
2023-04-18T06:13:05.930Z,177.30
2023-04-18T06:14:04.996Z,178.43
2023-04-18T06:15:05.021Z,181.25
2023-04-18T06:16:06.205Z,186.37
2023-04-18T06:17:06.141Z,191.35
2023-04-18T06:18:06.227Z,190.62
2023-04-18T06:19:05.333Z,196.34
2023-04-18T06:20:05.275Z,191.23
2023-04-18T06:21:05.333Z,197.69
2023-04-18T06:22:06.378Z,199.28
2023-04-18T06:23:06.405Z,202.72
2023-04-18T06:24:06.431Z,199.53
2023-04-18T06:25:05.437Z,198.88
2023-04-18T06:26:06.507Z,208.40
2023-04-18T06:27:05.528Z,211.44
2023-04-18T06:28:06.567Z,208.84
2023-04-18T06:29:06.574Z,214.10
2023-04-18T06:30:05.580Z,210.96
2023-04-18T06:31:05.661Z,212.78
2023-04-18T06:32:06.693Z,214.61
2023-04-18T06:33:06.673Z,213.48
2023-04-18T06:34:05.655Z,219.43
2023-04-18T06:35:06.678Z,223.97
2023-04-18T06:36:06.685Z,225.33
2023-04-18T06:37:06.698Z,224.32
2023-04-18T06:38:06.725Z,221.20
2023-04-18T06:39:06.757Z,219.90
2023-04-18T06:40:05.755Z,223.13
2023-04-18T06:41:06.802Z,220.11
2023-04-18T06:42:06.802Z,222.75
2023-04-18T06:43:06.773Z,219.81
2023-04-18T06:44:06.794Z,219.36
2023-04-18T06:45:05.806Z,223.48
2023-04-18T06:46:06.010Z,221.12
2023-04-18T06:47:06.893Z,215.61
2023-04-18T06:48:06.958Z,211.89
2023-04-18T06:49:07.056Z,210.23
2023-04-18T06:50:06.031Z,206.91
2023-04-18T06:51:07.113Z,200.97
2023-04-18T06:52:07.147Z,159.86
2023-04-18T06:53:07.177Z,104.60
2023-04-18T06:54:07.202Z,82.27
2023-04-18T06:55:07.245Z,80.27
2023-04-18T06:56:07.685Z,114.02
2023-04-18T06:57:07.321Z,105.52
2023-04-18T06:58:06.487Z,127.75
2023-04-18T06:59:07.334Z,126.27
2023-04-18T07:00:07.378Z,118.86
2023-04-18T07:01:06.449Z,112.30
2023-04-18T07:02:06.479Z,108.62
2023-04-18T07:03:10.343Z,104.81
2023-04-18T07:04:06.612Z,104.95
2023-04-18T07:05:07.520Z,105.00
2023-04-18T07:06:07.517Z,100.67
2023-04-18T07:07:07.491Z,99.75
2023-04-18T07:08:07.508Z,101.42
2023-04-18T07:09:06.475Z,99.48
2023-04-18T07:10:07.849Z,99.37
2023-04-18T07:11:07.556Z,96.48
2023-04-18T07:12:07.455Z,96.00
2023-04-18T07:13:07.440Z,96.78
2023-04-18T07:14:06.554Z,97.35
2023-04-18T07:15:07.484Z,93.42
2023-04-18T07:16:07.458Z,91.20
2023-04-18T07:17:06.559Z,94.60
2023-04-18T07:18:07.483Z,89.80
2023-04-18T07:19:06.411Z,89.29
2023-04-18T07:20:06.413Z,86.68
2023-04-18T07:21:07.845Z,84.91
2023-04-18T07:22:07.385Z,88.35
2023-04-18T07:23:07.385Z,84.83
2023-04-18T07:24:07.478Z,84.98
2023-04-18T07:25:06.390Z,81.15
2023-04-18T07:26:07.376Z,82.78
2023-04-18T07:27:07.352Z,80.68
2023-04-18T07:28:06.364Z,81.24
2023-04-18T07:29:06.326Z,80.03
2023-04-18T07:30:06.500Z,78.20
2023-04-18T07:31:06.373Z,76.11
2023-04-18T07:32:08.461Z,77.28
2023-04-18T07:33:07.317Z,78.60
2023-04-18T07:34:07.314Z,77.85
2023-04-18T07:35:07.349Z,86.74
2023-04-18T07:36:07.377Z,96.34
2023-04-18T07:37:07.447Z,94.72
2023-04-18T07:38:07.431Z,95.69
2023-04-18T07:39:06.452Z,95.94
2023-04-18T07:40:07.466Z,95.61
2023-04-18T07:41:06.467Z,99.01
2023-04-18T07:42:07.464Z,100.78
2023-04-18T07:43:06.463Z,100.17
2023-04-18T07:44:07.463Z,102.59
2023-04-18T07:45:07.475Z,107.58
2023-04-18T07:46:07.733Z,110.79
2023-04-18T07:47:07.468Z,111.36
2023-04-18T07:48:07.541Z,60.32
2023-04-18T07:49:06.540Z,37.09
2023-04-18T07:50:06.652Z,37.01
2023-04-18T07:51:07.709Z,25.00
2023-04-18T07:52:07.617Z,25.21
2023-04-18T07:53:07.626Z,31.02
2023-04-18T07:54:06.635Z,24.19
2023-04-18T07:55:07.657Z,31.57
2023-04-18T07:56:06.710Z,49.04
2023-04-18T07:57:06.762Z,69.66
2023-04-18T07:58:07.755Z,73.61
2023-04-18T07:59:07.829Z,70.99
2023-04-18T08:00:07.871Z,70.84
2023-04-18T08:01:07.836Z,72.80
2023-04-18T08:02:07.935Z,72.02
2023-04-18T08:03:07.094Z,79.70
2023-04-18T08:04:07.145Z,87.65
2023-04-18T08:05:08.158Z,90.74
2023-04-18T08:06:08.008Z,97.15
2023-04-18T08:07:08.052Z,103.74
2023-04-18T08:08:08.128Z,103.93
2023-04-18T08:09:07.160Z,109.05
2023-04-18T08:10:08.192Z,104.69
2023-04-18T08:11:08.239Z,108.67
2023-04-18T08:12:08.283Z,114.61
2023-04-18T08:13:08.327Z,121.31
2023-04-18T08:14:08.358Z,125.26
2023-04-18T08:15:07.426Z,124.47
2023-04-18T08:16:08.472Z,129.23
2023-04-18T08:17:07.485Z,134.82
2023-04-18T08:18:07.693Z,135.00
2023-04-18T08:19:07.553Z,133.25
2023-04-18T08:20:07.619Z,139.68
2023-04-18T08:21:07.645Z,141.69
2023-04-18T08:22:08.641Z,144.56
2023-04-18T08:23:11.181Z,144.93
2023-04-18T08:24:08.645Z,145.24
2023-04-18T08:25:07.657Z,146.34
2023-04-18T08:26:08.642Z,149.03
2023-04-18T08:27:08.638Z,150.89
2023-04-18T08:28:07.662Z,161.61
2023-04-18T08:29:07.637Z,160.55
2023-04-18T08:30:08.610Z,165.21
2023-04-18T08:31:07.629Z,168.03
2023-04-18T08:32:07.838Z,168.83
2023-04-18T08:33:07.667Z,170.78
2023-04-18T08:34:08.697Z,173.57
2023-04-18T08:35:07.575Z,176.55
2023-04-18T08:36:08.582Z,177.65
2023-04-18T08:37:07.571Z,180.38
2023-04-18T08:38:08.661Z,182.49
2023-04-18T08:39:08.564Z,182.67
2023-04-18T08:40:08.577Z,187.18
2023-04-18T08:41:08.561Z,192.25
2023-04-18T08:42:08.586Z,191.79
2023-04-18T08:43:08.577Z,191.59
2023-04-18T08:44:07.577Z,191.31
2023-04-18T08:45:08.634Z,196.03
2023-04-18T08:46:07.773Z,196.40
2023-04-18T08:47:07.722Z,197.97
2023-04-18T08:48:08.843Z,203.81
2023-04-18T08:49:10.673Z,210.99
2023-04-18T08:50:07.782Z,211.41
2023-04-18T08:51:08.744Z,215.49
2023-04-18T08:52:08.733Z,203.28
2023-04-18T08:53:08.716Z,166.02
2023-04-18T08:54:07.728Z,136.48
2023-04-18T08:55:08.719Z,112.22
2023-04-18T08:56:07.708Z,87.83
2023-04-18T08:57:08.745Z,92.14
2023-04-18T08:58:08.693Z,135.31
2023-04-18T08:59:07.694Z,146.96
2023-04-18T09:00:08.695Z,147.48
2023-04-18T09:01:08.728Z,127.26
2023-04-18T09:02:07.675Z,78.03
2023-04-18T09:03:08.808Z,74.82
2023-04-18T09:04:07.722Z,92.83
2023-04-18T09:05:07.645Z,98.38
2023-04-18T09:06:07.819Z,110.31
2023-04-18T09:07:08.629Z,114.02
2023-04-18T09:08:07.646Z,117.27
2023-04-18T09:09:08.620Z,118.20
2023-04-18T09:10:08.602Z,118.26
2023-04-18T09:11:08.608Z,117.59
2023-04-18T09:12:08.599Z,119.10
2023-04-18T09:13:08.595Z,116.87
2023-04-18T09:14:08.576Z,113.35
2023-04-18T09:15:07.581Z,115.46
2023-04-18T09:16:08.596Z,109.17
2023-04-18T09:17:08.550Z,105.88
2023-04-18T09:18:07.589Z,112.28
2023-04-18T09:19:07.546Z,108.74
2023-04-18T09:20:08.543Z,108.80
2023-04-18T09:21:08.517Z,110.96
2023-04-18T09:22:08.546Z,112.94
2023-04-18T09:23:07.525Z,111.39
2023-04-18T09:24:07.505Z,113.66
2023-04-18T09:25:07.509Z,109.28
2023-04-18T09:26:07.486Z,111.29
2023-04-18T09:27:08.495Z,112.07
2023-04-18T09:28:08.486Z,111.73
2023-04-18T09:29:08.478Z,108.23
2023-04-18T09:30:08.461Z,112.01
2023-04-18T09:31:07.513Z,108.64
2023-04-18T09:32:08.448Z,111.67
2023-04-18T09:33:08.450Z,112.93
2023-04-18T09:34:08.608Z,109.56
2023-04-18T09:35:07.434Z,109.47
2023-04-18T09:36:08.435Z,108.21
2023-04-18T09:37:07.497Z,106.97
2023-04-18T09:38:08.437Z,102.65
2023-04-18T09:39:08.432Z,106.94
2023-04-18T09:40:08.440Z,103.17
2023-04-18T09:41:07.459Z,101.43
2023-04-18T09:42:08.432Z,100.05
2023-04-18T09:43:08.435Z,104.94
2023-04-18T09:44:08.795Z,103.72
2023-04-18T09:45:08.505Z,102.80
2023-04-18T09:46:08.483Z,87.30
2023-04-18T09:47:08.755Z,66.77
2023-04-18T09:48:07.632Z,53.99
2023-04-18T09:49:10.941Z,62.65
2023-04-18T09:50:08.638Z,68.56
2023-04-18T09:51:07.575Z,71.29
2023-04-18T09:52:08.752Z,73.03
2023-04-18T09:53:07.548Z,75.54
2023-04-18T09:54:08.587Z,78.68
2023-04-18T09:55:07.556Z,75.59
2023-04-18T09:56:08.522Z,72.97
2023-04-18T09:57:08.525Z,76.48
2023-04-18T09:58:07.498Z,79.82
2023-04-18T09:59:08.490Z,76.89
2023-04-18T10:00:08.502Z,74.57
2023-04-18T10:01:08.577Z,71.43
2023-04-18T10:02:08.627Z,73.45
2023-04-18T10:03:08.605Z,70.25
2023-04-18T10:04:08.553Z,70.82
2023-04-18T10:05:07.522Z,68.80
2023-04-18T10:06:08.455Z,68.91
2023-04-18T10:07:07.461Z,66.83
2023-04-18T10:08:08.475Z,66.03
2023-04-18T10:09:08.416Z,66.32
2023-04-18T10:10:07.450Z,65.76
2023-04-18T10:11:07.406Z,64.48
2023-04-18T10:12:08.760Z,60.51
2023-04-18T10:13:08.443Z,64.55
2023-04-18T10:14:08.382Z,59.54
2023-04-18T10:15:07.399Z,60.80
2023-04-18T10:16:08.436Z,57.42
2023-04-18T10:17:07.386Z,55.14
2023-04-18T10:18:08.404Z,56.95
2023-04-18T10:19:08.357Z,54.94
2023-04-18T10:20:08.354Z,54.25
2023-04-18T10:21:07.359Z,55.27
2023-04-18T10:22:07.422Z,53.10
2023-04-18T10:23:07.447Z,51.93
2023-04-18T10:24:08.506Z,50.48
2023-04-18T10:25:08.565Z,51.74
2023-04-18T10:26:07.636Z,50.99
2023-04-18T10:27:08.672Z,49.10
2023-04-18T10:28:07.769Z,45.70
2023-04-18T10:29:08.746Z,44.88
2023-04-18T10:30:09.114Z,47.48
2023-04-18T10:31:08.883Z,42.76
2023-04-18T10:32:08.937Z,44.44
2023-04-18T10:33:18.324Z,43.32
2023-04-18T10:34:08.950Z,43.55
2023-04-18T10:35:08.970Z,43.29
2023-04-18T10:36:08.940Z,41.41
2023-04-18T10:37:09.012Z,42.01
2023-04-18T10:38:08.936Z,34.58
2023-04-18T10:39:08.922Z,33.84
2023-04-18T10:40:08.922Z,36.06
2023-04-18T10:41:08.905Z,31.80
2023-04-18T10:42:08.298Z,25.61
2023-04-18T10:43:08.889Z,27.35
2023-04-18T10:44:09.153Z,45.64
2023-04-18T10:45:08.887Z,49.56
2023-04-18T10:46:14.338Z,41.16
2023-04-18T10:47:09.307Z,41.59
2023-04-18T10:48:08.887Z,41.72
2023-04-18T10:49:08.855Z,40.39
2023-04-18T10:50:08.856Z,41.43
2023-04-18T10:51:08.854Z,43.49
2023-04-18T10:52:08.831Z,45.48
2023-04-18T10:53:08.885Z,44.67
2023-04-18T10:54:07.816Z,45.47
2023-04-18T10:55:07.807Z,41.22
2023-04-18T10:56:08.841Z,41.93
2023-04-18T10:57:07.892Z,36.21
2023-04-18T10:58:08.990Z,36.40
2023-04-18T10:59:09.020Z,28.80
2023-04-18T11:00:09.108Z,34.67
2023-04-18T11:01:08.174Z,31.60
2023-04-18T11:02:09.260Z,25.64
2023-04-18T11:03:09.398Z,25.00
2023-04-18T11:04:09.464Z,26.85
2023-04-18T11:05:08.391Z,25.93
2023-04-18T11:06:08.475Z,34.75
2023-04-18T11:07:09.491Z,29.48
2023-04-18T11:08:08.500Z,25.00
2023-04-18T11:09:09.564Z,25.00
2023-04-18T11:10:08.583Z,24.14
2023-04-18T11:11:09.637Z,33.45
2023-04-18T11:12:09.660Z,27.08
2023-04-18T11:13:09.691Z,33.31
2023-04-18T11:14:09.893Z,36.84
2023-04-18T11:15:09.676Z,30.58
2023-04-18T11:16:09.731Z,31.09
2023-04-18T11:17:09.704Z,25.00
2023-04-18T11:18:09.755Z,38.32
2023-04-18T11:19:09.722Z,55.69
2023-04-18T11:20:09.730Z,51.50
2023-04-18T11:21:09.827Z,59.40
2023-04-18T11:22:09.786Z,63.25
2023-04-18T11:23:09.746Z,66.31
2023-04-18T11:24:09.752Z,70.02
2023-04-18T11:25:09.765Z,72.32
2023-04-18T11:26:09.797Z,79.79
2023-04-18T11:27:09.777Z,83.77
2023-04-18T11:28:09.783Z,77.34
2023-04-18T11:29:08.765Z,83.43
2023-04-18T11:30:09.852Z,82.03
2023-04-18T11:31:09.764Z,85.51
2023-04-18T11:32:09.819Z,76.54
2023-04-18T11:33:09.045Z,82.39
2023-04-18T11:34:09.757Z,83.09
2023-04-18T11:35:09.750Z,82.82
2023-04-18T11:36:09.748Z,85.01
2023-04-18T11:37:09.796Z,82.86
2023-04-18T11:38:09.769Z,76.41
2023-04-18T11:39:08.792Z,84.91
2023-04-18T11:40:09.778Z,94.35
2023-04-18T11:41:09.786Z,81.21
2023-04-18T11:42:09.856Z,90.94
2023-04-18T11:43:08.803Z,86.03
2023-04-18T11:44:08.782Z,79.25
2023-04-18T11:45:08.772Z,87.80
2023-04-18T11:46:09.011Z,90.01
2023-04-18T11:47:09.807Z,99.14
2023-04-18T11:48:08.854Z,97.65
2023-04-18T11:49:09.814Z,100.42
2023-04-18T11:50:08.822Z,98.16
2023-04-18T11:51:09.841Z,97.31
2023-04-18T11:52:09.889Z,103.06
2023-04-18T11:53:09.859Z,101.12
2023-04-18T11:54:09.878Z,94.29
2023-04-18T11:55:09.846Z,99.96
2023-04-18T11:56:09.862Z,98.70
2023-04-18T11:57:08.872Z,97.32
2023-04-18T11:58:08.889Z,85.67
2023-04-18T11:59:08.874Z,89.61
2023-04-18T12:00:09.866Z,94.16
2023-04-18T12:01:09.871Z,81.23
2023-04-18T12:03:11.187Z,83.04
2023-04-18T12:04:10.043Z,79.35
2023-04-18T12:05:10.346Z,75.05
2023-04-18T12:06:09.902Z,70.66
2023-04-18T12:07:08.855Z,79.12
2023-04-18T12:08:09.895Z,78.56
2023-04-18T12:09:08.826Z,73.03
2023-04-18T12:10:08.816Z,74.74
2023-04-18T12:11:08.824Z,78.57
2023-04-18T12:12:09.817Z,77.84
2023-04-18T12:13:09.816Z,80.48
2023-04-18T12:14:09.810Z,66.38
2023-04-18T12:15:09.800Z,72.72
2023-04-18T12:16:09.869Z,67.68
2023-04-18T12:17:09.797Z,62.62
2023-04-18T12:18:09.877Z,66.51
2023-04-18T12:19:09.757Z,58.76
2023-04-18T12:20:09.779Z,58.73
2023-04-18T12:21:09.778Z,69.67
2023-04-18T12:22:08.731Z,69.46
2023-04-18T12:23:08.761Z,78.47
2023-04-18T12:24:08.733Z,75.81
2023-04-18T12:25:08.734Z,76.28
2023-04-18T12:26:08.706Z,69.11
2023-04-18T12:27:08.711Z,45.58
2023-04-18T12:28:09.722Z,47.02
2023-04-18T12:29:09.687Z,38.74
2023-04-18T12:30:09.698Z,58.91
2023-04-18T12:31:09.754Z,68.82
2023-04-18T12:32:08.676Z,85.56
2023-04-18T12:33:09.680Z,61.28
2023-04-18T12:34:09.681Z,34.77
2023-04-18T12:35:09.651Z,52.77
2023-04-18T12:36:09.664Z,66.34
2023-04-18T12:37:08.640Z,73.49
2023-04-18T12:38:08.636Z,65.68
2023-04-18T12:39:09.617Z,73.27
2023-04-18T12:40:08.617Z,86.53
2023-04-18T12:41:09.610Z,85.61
2023-04-18T12:42:08.606Z,100.72
2023-04-18T12:43:08.594Z,103.48
2023-04-18T12:44:09.582Z,103.42
2023-04-18T12:45:08.581Z,114.34
2023-04-18T12:46:09.605Z,103.63
2023-04-18T12:47:08.660Z,108.61